sensor_id;sensor_type;location;lat;lon;timestamp;pressure;altitude;pressure_sealevel;temperature;humidity
72210;BME280;60113;48.762;12.302;2023-09-18T00:00:18;96920.13;;;11.94;80.01
72210;BME280;60113;48.762;12.302;2023-09-18T00:02:46;96913.91;;;11.95;79.30
72210;BME280;60113;48.762;12.302;2023-09-18T00:05:12;96912.09;;;11.95;79.62
72210;BME280;60113;48.762;12.302;2023-09-18T00:07:44;96912.25;;;11.94;79.85
72210;BME280;60113;48.762;12.302;2023-09-18T00:10:10;96915.81;;;11.93;78.86
72210;BME280;60113;48.762;12.302;2023-09-18T00:12:36;96908.19;;;11.90;77.58
72210;BME280;60113;48.762;12.302;2023-09-18T00:15:02;96912.63;;;11.89;79.11
72210;BME280;60113;48.762;12.302;2023-09-18T00:17:27;96906.66;;;11.87;79.74
72210;BME280;60113;48.762;12.302;2023-09-18T00:19:53;96900.56;;;11.86;79.89
72210;BME280;60113;48.762;12.302;2023-09-18T00:22:19;96901.41;;;11.87;79.30
72210;BME280;60113;48.762;12.302;2023-09-18T00:24:44;96899.59;;;11.87;77.97
72210;BME280;60113;48.762;12.302;2023-09-18T00:27:10;96896.13;;;11.87;79.56
72210;BME280;60113;48.762;12.302;2023-09-18T00:29:36;96898.63;;;11.88;81.27
72210;BME280;60113;48.762;12.302;2023-09-18T00:32:02;96887.97;;;11.90;79.91
72210;BME280;60113;48.762;12.302;2023-09-18T00:34:29;96886.03;;;11.92;81.35
72210;BME280;60113;48.762;12.302;2023-09-18T00:36:54;96887.97;;;11.90;81.45
72210;BME280;60113;48.762;12.302;2023-09-18T00:39:20;96884.34;;;11.91;81.54
72210;BME280;60113;48.762;12.302;2023-09-18T00:41:45;96887.00;;;11.91;81.76
72210;BME280;60113;48.762;12.302;2023-09-18T00:44:14;96885.19;;;11.92;80.37
72210;BME280;60113;48.762;12.302;2023-09-18T00:46:39;96879.22;;;11.90;81.28
72210;BME280;60113;48.762;12.302;2023-09-18T00:49:05;96877.56;;;11.88;81.17
72210;BME280;60113;48.762;12.302;2023-09-18T00:51:31;96873.16;;;11.89;80.92
72210;BME280;60113;48.762;12.302;2023-09-18T00:53:57;96874.81;;;11.90;81.84
72210;BME280;60113;48.762;12.302;2023-09-18T00:56:23;96871.91;;;11.93;78.48
72210;BME280;60113;48.762;12.302;2023-09-18T00:58:48;96869.13;;;11.95;79.09
72210;BME280;60113;48.762;12.302;2023-09-18T01:01:16;96866.22;;;11.98;82.00
72210;BME280;60113;48.762;12.302;2023-09-18T01:03:48;96856.53;;;11.98;84.93
72210;BME280;60113;48.762;12.302;2023-09-18T01:06:15;96859.84;;;12.00;82.53
72210;BME280;60113;48.762;12.302;2023-09-18T01:08:40;96849.19;;;12.02;81.88
72210;BME280;60113;48.762;12.302;2023-09-18T01:11:33;96848.78;;;12.07;86.23
72210;BME280;60113;48.762;12.302;2023-09-18T01:14:35;96845.19;;;12.08;89.37
72210;BME280;60113;48.762;12.302;2023-09-18T01:17:02;96850.03;;;12.03;83.47
72210;BME280;60113;48.762;12.302;2023-09-18T01:19:40;96847.53;;;12.01;83.98
72210;BME280;60113;48.762;12.302;2023-09-18T01:22:08;96841.97;;;11.94;82.01
72210;BME280;60113;48.762;12.302;2023-09-18T01:24:35;96842.50;;;11.88;80.23
72210;BME280;60113;48.762;12.302;2023-09-18T01:27:02;96841.13;;;11.84;80.40
72210;BME280;60113;48.762;12.302;2023-09-18T01:29:31;96837.91;;;11.80;81.18
72210;BME280;60113;48.762;12.302;2023-09-18T01:31:57;96839.72;;;11.80;81.24
72210;BME280;60113;48.762;12.302;2023-09-18T01:34:31;96837.09;;;11.80;83.97
72210;BME280;60113;48.762;12.302;2023-09-18T01:36:59;96834.75;;;11.77;88.72
72210;BME280;60113;48.762;12.302;2023-09-18T01:39:27;96830.84;;;11.81;85.39
72210;BME280;60113;48.762;12.302;2023-09-18T01:41:58;96831.56;;;11.83;81.84
72210;BME280;60113;48.762;12.302;2023-09-18T01:44:23;96831.44;;;11.84;82.33
72210;BME280;60113;48.762;12.302;2023-09-18T01:46:49;96822.69;;;11.84;82.55
72210;BME280;60113;48.762;12.302;2023-09-18T01:49:17;96823.66;;;11.83;81.86
72210;BME280;60113;48.762;12.302;2023-09-18T01:51:51;96829.06;;;11.81;82.55
72210;BME280;60113;48.762;12.302;2023-09-18T01:54:16;96814.50;;;11.77;85.80
72210;BME280;60113;48.762;12.302;2023-09-18T01:56:41;96813.41;;;11.80;80.03
72210;BME280;60113;48.762;12.302;2023-09-18T01:59:07;96807.31;;;11.79;81.64
72210;BME280;60113;48.762;12.302;2023-09-18T02:01:32;96816.03;;;11.80;83.11
72210;BME280;60113;48.762;12.302;2023-09-18T02:03:58;96809.22;;;11.77;82.62
72210;BME280;60113;48.762;12.302;2023-09-18T02:06:23;96815.59;;;11.74;83.72
72210;BME280;60113;48.762;12.302;2023-09-18T02:08:48;96810.59;;;11.71;80.44
72210;BME280;60113;48.762;12.302;2023-09-18T02:11:14;96810.75;;;11.70;82.45
72210;BME280;60113;48.762;12.302;2023-09-18T02:13:39;96808.25;;;11.68;83.01
72210;BME280;60113;48.762;12.302;2023-09-18T02:16:04;96800.50;;;11.67;83.17
72210;BME280;60113;48.762;12.302;2023-09-18T02:18:30;96798.97;;;11.64;79.26
72210;BME280;60113;48.762;12.302;2023-09-18T02:20:55;96790.50;;;11.60;80.74
72210;BME280;60113;48.762;12.302;2023-09-18T02:23:20;96788.13;;;11.57;83.75
72210;BME280;60113;48.762;12.302;2023-09-18T02:25:46;96785.78;;;11.54;83.96
72210;BME280;60113;48.762;12.302;2023-09-18T02:28:12;96786.03;;;11.51;83.53
72210;BME280;60113;48.762;12.302;2023-09-18T02:30:37;96795.03;;;11.48;82.49
72210;BME280;60113;48.762;12.302;2023-09-18T02:33:03;96797.09;;;11.45;83.11
72210;BME280;60113;48.762;12.302;2023-09-18T02:35:29;96788.50;;;11.43;85.43
72210;BME280;60113;48.762;12.302;2023-09-18T02:37:55;96789.47;;;11.42;84.07
72210;BME280;60113;48.762;12.302;2023-09-18T02:40:20;96796.38;;;11.43;84.77
72210;BME280;60113;48.762;12.302;2023-09-18T02:42:45;96799.88;;;11.43;87.85
72210;BME280;60113;48.762;12.302;2023-09-18T02:45:11;96788.38;;;11.44;87.93
72210;BME280;60113;48.762;12.302;2023-09-18T02:47:36;96787.16;;;11.48;86.82
72210;BME280;60113;48.762;12.302;2023-09-18T02:50:06;96788.53;;;11.53;84.01
72210;BME280;60113;48.762;12.302;2023-09-18T02:52:32;96779.53;;;11.55;85.08
72210;BME280;60113;48.762;12.302;2023-09-18T02:54:57;96783.84;;;11.56;nan
72210;BME280;60113;48.762;12.302;2023-09-18T02:57:22;96783.84;;;11.56;83.68
72210;BME280;60113;48.762;12.302;2023-09-18T02:59:48;96782.56;;;11.50;84.01
72210;BME280;60113;48.762;12.302;2023-09-18T03:02:13;96777.84;;;11.44;88.58
72210;BME280;60113;48.762;12.302;2023-09-18T03:04:39;96779.09;;;11.40;84.22
72210;BME280;60113;48.762;12.302;2023-09-18T03:07:04;96782.13;;;11.35;82.57
72210;BME280;60113;48.762;12.302;2023-09-18T03:09:30;96788.75;;;11.30;82.02
72210;BME280;60113;48.762;12.302;2023-09-18T03:11:55;96790.94;;;11.24;83.19
72210;BME280;60113;48.762;12.302;2023-09-18T03:14:21;96789.53;;;11.20;81.58
72210;BME280;60113;48.762;12.302;2023-09-18T03:16:46;96780.94;;;11.18;81.53
72210;BME280;60113;48.762;12.302;2023-09-18T03:19:11;96776.66;;;11.17;80.82
72210;BME280;60113;48.762;12.302;2023-09-18T03:21:37;96769.34;;;11.21;87.80
72210;BME280;60113;48.762;12.302;2023-09-18T03:24:03;96774.91;;;11.28;85.76
72210;BME280;60113;48.762;12.302;2023-09-18T03:26:29;96768.28;;;11.33;83.06
72210;BME280;60113;48.762;12.302;2023-09-18T03:28:54;96760.09;;;11.36;83.62
72210;BME280;60113;48.762;12.302;2023-09-18T03:31:20;96769.09;;;11.34;84.05
72210;BME280;60113;48.762;12.302;2023-09-18T03:33:45;96766.06;;;11.29;84.65
72210;BME280;60113;48.762;12.302;2023-09-18T03:36:11;96767.78;;;11.18;83.21
72210;BME280;60113;48.762;12.302;2023-09-18T03:38:37;96767.66;;;11.10;84.48
72210;BME280;60113;48.762;12.302;2023-09-18T03:41:02;96757.66;;;11.04;82.42
72210;BME280;60113;48.762;12.302;2023-09-18T03:43:28;96749.19;;;11.00;83.06
72210;BME280;60113;48.762;12.302;2023-09-18T03:45:53;96746.81;;;10.97;80.13
72210;BME280;60113;48.762;12.302;2023-09-18T03:48:18;96739.91;;;10.96;84.16
72210;BME280;60113;48.762;12.302;2023-09-18T03:50:47;96744.06;;;10.98;82.01
72210;BME280;60113;48.762;12.302;2023-09-18T03:53:12;96744.06;;;10.98;84.34
72210;BME280;60113;48.762;12.302;2023-09-18T03:55:38;96751.69;;;11.02;86.60
72210;BME280;60113;48.762;12.302;2023-09-18T03:58:04;96747.00;;;11.05;84.50
72210;BME280;60113;48.762;12.302;2023-09-18T04:00:30;96746.88;;;11.07;84.28
72210;BME280;60113;48.762;12.302;2023-09-18T04:02:55;96745.19;;;11.06;83.91
72210;BME280;60113;48.762;12.302;2023-09-18T04:05:21;96739.25;;;11.04;83.85
72210;BME280;60113;48.762;12.302;2023-09-18T04:07:46;96736.88;;;11.00;85.28
72210;BME280;60113;48.762;12.302;2023-09-18T04:10:12;96723.03;;;10.98;85.42
72210;BME280;60113;48.762;12.302;2023-09-18T04:12:44;96718.50;;;11.00;86.22
72210;BME280;60113;48.762;12.302;2023-09-18T04:15:13;96710.06;;;11.07;85.73
72210;BME280;60113;48.762;12.302;2023-09-18T04:17:39;96705.22;;;11.12;85.69
72210;BME280;60113;48.762;12.302;2023-09-18T04:20:05;96699.81;;;11.13;87.18
72210;BME280;60113;48.762;12.302;2023-09-18T04:22:31;96707.72;;;11.13;85.60
72210;BME280;60113;48.762;12.302;2023-09-18T04:24:56;96700.22;;;11.09;85.68
72210;BME280;60113;48.762;12.302;2023-09-18T04:27:21;96711.16;;;11.04;84.39
72210;BME280;60113;48.762;12.302;2023-09-18T04:29:47;96710.72;;;10.99;84.74
72210;BME280;60113;48.762;12.302;2023-09-18T04:32:12;96708.63;;;10.93;83.83
72210;BME280;60113;48.762;12.302;2023-09-18T04:34:37;96705.56;;;10.87;84.64
72210;BME280;60113;48.762;12.302;2023-09-18T04:37:04;96694.34;;;10.85;79.88
72210;BME280;60113;48.762;12.302;2023-09-18T04:39:29;96685.91;;;10.82;82.29
72210;BME280;60113;48.762;12.302;2023-09-18T04:41:55;96684.22;;;10.81;81.28
72210;BME280;60113;48.762;12.302;2023-09-18T04:44:20;96684.22;;;10.81;83.88
72210;BME280;60113;48.762;12.302;2023-09-18T04:46:45;96682.31;;;10.83;84.76
72210;BME280;60113;48.762;12.302;2023-09-18T04:49:11;96693.53;;;10.85;84.97
72210;BME280;60113;48.762;12.302;2023-09-18T04:51:38;96690.06;;;10.84;84.28
72210;BME280;60113;48.762;12.302;2023-09-18T04:54:04;96696.16;;;10.85;85.00
72210;BME280;60113;48.762;12.302;2023-09-18T04:56:29;96697.81;;;10.86;84.67
72210;BME280;60113;48.762;12.302;2023-09-18T04:58:55;96679.41;;;10.86;84.02
72210;BME280;60113;48.762;12.302;2023-09-18T05:01:20;96671.25;;;10.89;88.10
72210;BME280;60113;48.762;12.302;2023-09-18T05:03:46;96671.00;;;10.92;92.30
72210;BME280;60113;48.762;12.302;2023-09-18T05:06:14;96673.78;;;11.00;89.42
72210;BME280;60113;48.762;12.302;2023-09-18T05:08:39;96668.00;;;11.07;87.02
72210;BME280;60113;48.762;12.302;2023-09-18T05:11:04;96669.13;;;11.14;82.52
72210;BME280;60113;48.762;12.302;2023-09-18T05:13:30;96660.56;;;11.22;83.72
72210;BME280;60113;48.762;12.302;2023-09-18T05:15:55;96675.66;;;11.30;84.26
72210;BME280;60113;48.762;12.302;2023-09-18T05:18:20;96687.03;;;11.40;84.03
72210;BME280;60113;48.762;12.302;2023-09-18T05:20:46;96690.91;;;11.46;85.16
72210;BME280;60113;48.762;12.302;2023-09-18T05:23:12;96674.84;;;11.49;85.90
72210;BME280;60113;48.762;12.302;2023-09-18T05:25:37;96678.59;;;11.56;84.58
72210;BME280;60113;48.762;12.302;2023-09-18T05:28:04;96684.69;;;11.67;85.75
72210;BME280;60113;48.762;12.302;2023-09-18T05:30:32;96681.09;;;11.78;86.20
72210;BME280;60113;48.762;12.302;2023-09-18T05:33:00;96676.66;;;11.88;85.76
72210;BME280;60113;48.762;12.302;2023-09-18T05:35:43;96670.00;;;12.04;84.25
72210;BME280;60113;48.762;12.302;2023-09-18T05:38:10;96669.19;;;12.13;84.53
72210;BME280;60113;48.762;12.302;2023-09-18T05:40:36;96659.44;;;12.23;85.94
72210;BME280;60113;48.762;12.302;2023-09-18T05:43:01;96654.03;;;12.35;86.67
72210;BME280;60113;48.762;12.302;2023-09-18T05:45:27;96650.41;;;12.46;87.86
72210;BME280;60113;48.762;12.302;2023-09-18T05:47:54;96644.13;;;12.57;93.56
72210;BME280;60113;48.762;12.302;2023-09-18T05:50:26;96643.78;;;12.70;90.94
72210;BME280;60113;48.762;12.302;2023-09-18T05:52:54;96646.22;;;12.81;88.97
72210;BME280;60113;48.762;12.302;2023-09-18T05:55:19;96653.13;;;12.92;86.34
72210;BME280;60113;48.762;12.302;2023-09-18T05:57:45;96651.25;;;13.03;86.67
72210;BME280;60113;48.762;12.302;2023-09-18T06:00:10;96666.88;;;13.14;85.53
72210;BME280;60113;48.762;12.302;2023-09-18T06:02:41;96675.41;;;13.26;85.69
72210;BME280;60113;48.762;12.302;2023-09-18T06:05:07;96678.00;;;13.36;85.59
72210;BME280;60113;48.762;12.302;2023-09-18T06:07:32;96667.53;;;13.44;89.76
72210;BME280;60113;48.762;12.302;2023-09-18T06:09:58;96669.97;;;13.56;88.95
72210;BME280;60113;48.762;12.302;2023-09-18T06:12:24;96670.44;;;13.69;88.60
72210;BME280;60113;48.762;12.302;2023-09-18T06:14:52;96661.31;;;13.82;93.30
72210;BME280;60113;48.762;12.302;2023-09-18T06:17:18;96656.34;;;13.97;87.10
72210;BME280;60113;48.762;12.302;2023-09-18T06:19:45;96656.44;;;14.13;86.30
72210;BME280;60113;48.762;12.302;2023-09-18T06:22:11;96647.16;;;14.36;87.81
72210;BME280;60113;48.762;12.302;2023-09-18T06:24:37;96649.47;;;14.66;98.11
72210;BME280;60113;48.762;12.302;2023-09-18T06:27:03;96644.22;;;15.00;98.12
72210;BME280;60113;48.762;12.302;2023-09-18T06:29:35;96649.28;;;15.45;93.68
72210;BME280;60113;48.762;12.302;2023-09-18T06:32:03;96652.97;;;15.94;92.93
72210;BME280;60113;48.762;12.302;2023-09-18T06:34:28;96660.22;;;16.42;93.12
72210;BME280;60113;48.762;12.302;2023-09-18T06:36:54;96656.78;;;16.90;93.66
72210;BME280;60113;48.762;12.302;2023-09-18T06:39:19;96667.03;;;17.42;94.14
72210;BME280;60113;48.762;12.302;2023-09-18T06:41:47;96655.59;;;17.88;95.04
72210;BME280;60113;48.762;12.302;2023-09-18T06:44:12;96640.22;;;18.22;93.58
72210;BME280;60113;48.762;12.302;2023-09-18T06:46:37;96642.44;;;18.48;92.72
72210;BME280;60113;48.762;12.302;2023-09-18T06:49:04;96643.09;;;18.81;93.27
72210;BME280;60113;48.762;12.302;2023-09-18T06:51:30;96649.31;;;19.18;95.60
72210;BME280;60113;48.762;12.302;2023-09-18T06:53:55;96655.94;;;19.59;95.99
72210;BME280;60113;48.762;12.302;2023-09-18T06:56:25;96659.75;;;19.94;94.35
72210;BME280;60113;48.762;12.302;2023-09-18T06:58:51;96664.25;;;20.15;92.63
72210;BME280;60113;48.762;12.302;2023-09-18T07:01:20;96668.72;;;20.36;93.91
72210;BME280;60113;48.762;12.302;2023-09-18T07:03:46;96658.25;;;20.64;91.37
72210;BME280;60113;48.762;12.302;2023-09-18T07:06:14;96653.44;;;20.88;92.93
72210;BME280;60113;48.762;12.302;2023-09-18T07:08:42;96643.28;;;21.05;90.21
72210;BME280;60113;48.762;12.302;2023-09-18T07:11:07;96647.03;;;21.17;89.65
72210;BME280;60113;48.762;12.302;2023-09-18T07:13:33;96638.84;;;21.32;89.56
72210;BME280;60113;48.762;12.302;2023-09-18T07:15:58;96640.34;;;21.48;89.10
72210;BME280;60113;48.762;12.302;2023-09-18T07:18:23;96640.75;;;21.52;88.97
72210;BME280;60113;48.762;12.302;2023-09-18T07:20:49;96646.50;;;21.49;87.18
72210;BME280;60113;48.762;12.302;2023-09-18T07:23:14;96644.63;;;21.36;85.29
72210;BME280;60113;48.762;12.302;2023-09-18T07:25:40;96648.06;;;21.23;84.44
72210;BME280;60113;48.762;12.302;2023-09-18T07:28:08;96645.78;;;21.13;82.71
72210;BME280;60113;48.762;12.302;2023-09-18T07:30:34;96641.84;;;21.02;82.17
72210;BME280;60113;48.762;12.302;2023-09-18T07:33:01;96636.91;;;20.99;81.85
72210;BME280;60113;48.762;12.302;2023-09-18T07:35:26;96644.69;;;21.01;81.24
72210;BME280;60113;48.762;12.302;2023-09-18T07:37:52;96642.69;;;21.09;81.68
72210;BME280;60113;48.762;12.302;2023-09-18T07:40:17;96648.25;;;21.21;82.44
72210;BME280;60113;48.762;12.302;2023-09-18T07:42:43;96652.44;;;21.44;82.16
72210;BME280;60113;48.762;12.302;2023-09-18T07:45:11;96655.59;;;21.68;83.48
72210;BME280;60113;48.762;12.302;2023-09-18T07:47:37;96658.97;;;21.91;83.06
72210;BME280;60113;48.762;12.302;2023-09-18T07:50:02;96682.00;;;21.98;84.03
72210;BME280;60113;48.762;12.302;2023-09-18T07:52:28;96697.00;;;22.06;83.48
72210;BME280;60113;48.762;12.302;2023-09-18T07:54:54;96699.09;;;22.25;84.92
72210;BME280;60113;48.762;12.302;2023-09-18T07:57:20;96691.66;;;22.47;85.30
72210;BME280;60113;48.762;12.302;2023-09-18T07:59:48;96706.47;;;22.56;83.51
72210;BME280;60113;48.762;12.302;2023-09-18T08:02:13;96725.88;;;22.45;84.30
72210;BME280;60113;48.762;12.302;2023-09-18T08:04:38;96716.38;;;22.29;83.34
72210;BME280;60113;48.762;12.302;2023-09-18T08:07:04;96736.56;;;22.25;83.13
72210;BME280;60113;48.762;12.302;2023-09-18T08:09:32;96725.44;;;22.41;79.99
72210;BME280;60113;48.762;12.302;2023-09-18T08:12:02;96727.91;;;22.56;83.82
72210;BME280;60113;48.762;12.302;2023-09-18T08:14:27;96728.31;;;22.73;81.75
72210;BME280;60113;48.762;12.302;2023-09-18T08:17:00;96727.31;;;22.68;72.65
72210;BME280;60113;48.762;12.302;2023-09-18T08:19:26;96712.44;;;22.85;82.55
72210;BME280;60113;48.762;12.302;2023-09-18T08:21:53;96709.13;;;22.97;81.38
72210;BME280;60113;48.762;12.302;2023-09-18T08:24:20;96703.78;;;23.04;81.56
72210;BME280;60113;48.762;12.302;2023-09-18T08:26:45;96700.03;;;23.12;80.88
72210;BME280;60113;48.762;12.302;2023-09-18T08:29:11;96684.69;;;23.39;81.11
72210;BME280;60113;48.762;12.302;2023-09-18T08:31:36;96688.50;;;23.64;80.14
72210;BME280;60113;48.762;12.302;2023-09-18T08:34:02;96683.31;;;24.01;80.85
72210;BME280;60113;48.762;12.302;2023-09-18T08:36:27;96678.16;;;24.32;80.53
72210;BME280;60113;48.762;12.302;2023-09-18T08:38:55;96679.97;;;24.38;80.04
72210;BME280;60113;48.762;12.302;2023-09-18T08:41:23;96682.47;;;24.58;79.77
72210;BME280;60113;48.762;12.302;2023-09-18T08:43:52;96694.44;;;24.81;78.36
72210;BME280;60113;48.762;12.302;2023-09-18T08:46:21;96691.13;;;25.05;80.05
72210;BME280;60113;48.762;12.302;2023-09-18T08:48:48;96691.53;;;25.39;79.94
72210;BME280;60113;48.762;12.302;2023-09-18T08:51:15;96681.91;;;25.81;78.13
72210;BME280;60113;48.762;12.302;2023-09-18T08:53:43;96682.09;;;26.10;78.22
72210;BME280;60113;48.762;12.302;2023-09-18T08:56:09;96679.47;;;26.34;77.50
72210;BME280;60113;48.762;12.302;2023-09-18T08:58:37;96693.88;;;26.40;75.58
72210;BME280;60113;48.762;12.302;2023-09-18T09:01:05;96691.94;;;26.28;75.06
72210;BME280;60113;48.762;12.302;2023-09-18T09:03:36;96690.06;;;26.17;74.53
72210;BME280;60113;48.762;12.302;2023-09-18T09:06:02;96685.38;;;26.00;72.67
72210;BME280;60113;48.762;12.302;2023-09-18T09:08:28;96690.06;;;25.74;71.47
72210;BME280;60113;48.762;12.302;2023-09-18T09:10:54;96705.88;;;25.52;70.03
72210;BME280;60113;48.762;12.302;2023-09-18T09:13:19;96701.50;;;25.69;69.42
72210;BME280;60113;48.762;12.302;2023-09-18T09:15:51;96706.63;;;26.02;69.79
72210;BME280;60113;48.762;12.302;2023-09-18T09:18:19;96705.34;;;26.35;70.37
72210;BME280;60113;48.762;12.302;2023-09-18T09:20:59;96697.88;;;26.49;63.39
72210;BME280;60113;48.762;12.302;2023-09-18T09:23:29;96688.28;;;26.65;64.91
72210;BME280;60113;48.762;12.302;2023-09-18T09:26:15;96681.91;;;26.71;62.49
72210;BME280;60113;48.762;12.302;2023-09-18T09:28:42;96683.44;;;26.91;69.76
72210;BME280;60113;48.762;12.302;2023-09-18T09:31:08;96692.94;;;27.06;70.19
72210;BME280;60113;48.762;12.302;2023-09-18T09:33:36;96698.69;;;27.09;68.09
72210;BME280;60113;48.762;12.302;2023-09-18T09:36:04;96692.81;;;27.13;68.15
72210;BME280;60113;48.762;12.302;2023-09-18T09:38:33;96689.44;;;27.05;67.96
72210;BME280;60113;48.762;12.302;2023-09-18T09:41:02;96688.72;;;27.10;65.18
72210;BME280;60113;48.762;12.302;2023-09-18T09:43:32;96676.38;;;27.26;68.13
72210;BME280;60113;48.762;12.302;2023-09-18T09:45:59;96673.78;;;27.31;65.21
72210;BME280;60113;48.762;12.302;2023-09-18T09:48:25;96666.94;;;27.41;68.09
72210;BME280;60113;48.762;12.302;2023-09-18T09:50:51;96666.88;;;27.24;66.65
72210;BME280;60113;48.762;12.302;2023-09-18T09:53:17;96672.16;;;27.18;66.56
72210;BME280;60113;48.762;12.302;2023-09-18T09:55:43;96662.50;;;27.34;66.96
72210;BME280;60113;48.762;12.302;2023-09-18T09:58:10;96663.03;;;26.95;59.53
72210;BME280;60113;48.762;12.302;2023-09-18T10:00:44;96656.16;;;26.52;60.76
72210;BME280;60113;48.762;12.302;2023-09-18T10:03:18;96668.59;;;26.53;61.34
72210;BME280;60113;48.762;12.302;2023-09-18T10:05:46;96663.09;;;26.36;61.40
72210;BME280;60113;48.762;12.302;2023-09-18T10:08:15;96663.13;;;26.05;59.20
72210;BME280;60113;48.762;12.302;2023-09-18T10:10:48;96659.63;;;25.92;58.19
72210;BME280;60113;48.762;12.302;2023-09-18T10:13:24;96660.31;;;25.88;59.59
72210;BME280;60113;48.762;12.302;2023-09-18T10:15:53;96657.84;;;25.86;60.69
72210;BME280;60113;48.762;12.302;2023-09-18T10:18:49;96660.69;;;25.72;56.09
72210;BME280;60113;48.762;12.302;2023-09-18T10:24:24;96670.66;;;25.72;56.78
72210;BME280;60113;48.762;12.302;2023-09-18T10:26:55;96669.63;;;25.85;60.04
72210;BME280;60113;48.762;12.302;2023-09-18T10:29:22;96666.41;;;25.95;60.44
72210;BME280;60113;48.762;12.302;2023-09-18T10:31:50;96679.63;;;26.08;59.60
72210;BME280;60113;48.762;12.302;2023-09-18T10:34:16;96680.22;;;25.99;59.69
72210;BME280;60113;48.762;12.302;2023-09-18T10:36:42;96678.72;;;25.72;59.40
72210;BME280;60113;48.762;12.302;2023-09-18T10:39:09;96697.03;;;25.63;59.92
72210;BME280;60113;48.762;12.302;2023-09-18T10:41:37;96699.19;;;25.54;60.03
72210;BME280;60113;48.762;12.302;2023-09-18T10:44:04;96708.56;;;25.33;59.78
72210;BME280;60113;48.762;12.302;2023-09-18T10:46:30;96702.09;;;25.22;60.02
72210;BME280;60113;48.762;12.302;2023-09-18T10:48:56;96700.53;;;25.14;60.17
72210;BME280;60113;48.762;12.302;2023-09-18T10:51:22;96701.41;;;25.08;60.09
72210;BME280;60113;48.762;12.302;2023-09-18T10:53:48;96695.53;;;24.99;59.93
72210;BME280;60113;48.762;12.302;2023-09-18T10:56:15;96696.31;;;25.00;60.33
72210;BME280;60113;48.762;12.302;2023-09-18T10:58:42;96696.31;;;25.00;60.21
72210;BME280;60113;48.762;12.302;2023-09-18T11:01:11;96698.78;;;25.01;59.99
72210;BME280;60113;48.762;12.302;2023-09-18T11:03:38;96702.81;;;25.10;60.49
72210;BME280;60113;48.762;12.302;2023-09-18T11:06:06;96706.28;;;25.18;60.69
72210;BME280;60113;48.762;12.302;2023-09-18T11:08:44;96699.19;;;25.24;60.22
72210;BME280;60113;48.762;12.302;2023-09-18T11:11:12;96702.38;;;25.32;60.68
72210;BME280;60113;48.762;12.302;2023-09-18T11:13:41;96698.47;;;25.47;60.83
72210;BME280;60113;48.762;12.302;2023-09-18T11:16:15;96699.81;;;25.56;59.34
72210;BME280;60113;48.762;12.302;2023-09-18T11:18:40;96709.34;;;25.52;59.94
72210;BME280;60113;48.762;12.302;2023-09-18T11:21:07;96701.06;;;25.54;60.48
72210;BME280;60113;48.762;12.302;2023-09-18T11:23:37;96705.19;;;25.56;58.21
72210;BME280;60113;48.762;12.302;2023-09-18T11:26:04;96711.78;;;25.61;60.29
72210;BME280;60113;48.762;12.302;2023-09-18T11:28:32;96709.97;;;25.54;60.59
72210;BME280;60113;48.762;12.302;2023-09-18T11:30:58;96709.72;;;25.56;60.88
72210;BME280;60113;48.762;12.302;2023-09-18T11:36:02;96711.25;;;25.70;61.28
72210;BME280;60113;48.762;12.302;2023-09-18T11:38:29;96711.81;;;25.72;60.92
72210;BME280;60113;48.762;12.302;2023-09-18T11:40:54;96708.31;;;25.72;60.07
72210;BME280;60113;48.762;12.302;2023-09-18T11:43:24;96709.00;;;25.67;59.28
72210;BME280;60113;48.762;12.302;2023-09-18T11:45:54;96718.19;;;25.78;60.05
72210;BME280;60113;48.762;12.302;2023-09-18T11:48:22;96720.84;;;26.09;60.94
72210;BME280;60113;48.762;12.302;2023-09-18T11:50:51;96716.19;;;26.28;58.45
72210;BME280;60113;48.762;12.302;2023-09-18T11:53:17;96718.22;;;26.33;60.12
72210;BME280;60113;48.762;12.302;2023-09-18T11:55:44;96707.41;;;26.21;58.17
72210;BME280;60113;48.762;12.302;2023-09-18T11:58:09;96712.84;;;26.02;59.09
72210;BME280;60113;48.762;12.302;2023-09-18T12:00:35;96710.19;;;25.71;56.72
72210;BME280;60113;48.762;12.302;2023-09-18T12:03:33;96708.44;;;25.77;57.10
72210;BME280;60113;48.762;12.302;2023-09-18T12:06:01;96721.09;;;25.77;58.78
72210;BME280;60113;48.762;12.302;2023-09-18T12:08:26;96718.09;;;25.66;59.97
72210;BME280;60113;48.762;12.302;2023-09-18T12:10:55;96720.22;;;25.45;59.50
72210;BME280;60113;48.762;12.302;2023-09-18T12:13:20;96715.34;;;25.35;59.58
72210;BME280;60113;48.762;12.302;2023-09-18T12:15:48;96714.63;;;25.28;59.39
72210;BME280;60113;48.762;12.302;2023-09-18T12:18:14;96722.19;;;25.19;59.50
72210;BME280;60113;48.762;12.302;2023-09-18T12:20:49;96718.66;;;25.00;58.57
72210;BME280;60113;48.762;12.302;2023-09-18T12:23:15;96725.31;;;24.97;59.54
72210;BME280;60113;48.762;12.302;2023-09-18T12:25:41;96724.09;;;24.93;59.29
72210;BME280;60113;48.762;12.302;2023-09-18T12:28:07;96722.47;;;24.85;58.91
72210;BME280;60113;48.762;12.302;2023-09-18T12:30:34;96734.94;;;24.80;58.83
72210;BME280;60113;48.762;12.302;2023-09-18T12:32:59;96727.72;;;24.80;59.08
72210;BME280;60113;48.762;12.302;2023-09-18T12:35:25;96727.53;;;24.75;57.95
72210;BME280;60113;48.762;12.302;2023-09-18T12:37:55;96746.03;;;24.65;57.73
72210;BME280;60113;48.762;12.302;2023-09-18T12:40:24;96743.03;;;24.54;57.45
72210;BME280;60113;48.762;12.302;2023-09-18T12:42:50;96717.28;;;24.46;57.64
72210;BME280;60113;48.762;12.302;2023-09-18T12:45:16;96739.22;;;24.37;57.75
72210;BME280;60113;48.762;12.302;2023-09-18T12:47:43;96746.09;;;24.32;57.97
72210;BME280;60113;48.762;12.302;2023-09-18T12:50:12;96750.00;;;24.30;57.49
72210;BME280;60113;48.762;12.302;2023-09-18T12:52:38;96749.69;;;24.19;57.77
72210;BME280;60113;48.762;12.302;2023-09-18T12:55:03;96759.38;;;24.14;58.08